sensor_id;sensor_type;location;lat;lon;timestamp;pressure;altitude;pressure_sealevel;temperature;humidity
76627;BME280;65519;53.230;10.390;2023-06-22T00:02:14;101616.97;;;18.96;73.28
76627;BME280;65519;53.230;10.390;2023-06-22T00:04:39;101622.16;;;18.84;73.55
76627;BME280;65519;53.230;10.390;2023-06-22T00:07:05;101624.41;;;18.82;73.54
76627;BME280;65519;53.230;10.390;2023-06-22T00:09:31;101622.88;;;18.57;73.88
76627;BME280;65519;53.230;10.390;2023-06-22T00:11:57;101638.59;;;18.76;73.53
76627;BME280;65519;53.230;10.390;2023-06-22T00:14:22;101619.56;;;18.74;72.72
76627;BME280;65519;53.230;10.390;2023-06-22T00:16:47;101636.66;;;18.76;73.13
76627;BME280;65519;53.230;10.390;2023-06-22T00:19:15;101638.56;;;18.94;72.44
76627;BME280;65519;53.230;10.390;2023-06-22T00:21:41;101630.25;;;18.81;72.72
76627;BME280;65519;53.230;10.390;2023-06-22T00:24:08;101631.91;;;18.95;72.44
76627;BME280;65519;53.230;10.390;2023-06-22T00:26:33;101639.84;;;18.83;72.75
76627;BME280;65519;53.230;10.390;2023-06-22T00:28:59;101620.09;;;18.76;73.42
76627;BME280;65519;53.230;10.390;2023-06-22T00:31:25;101632.50;;;18.79;74.27
76627;BME280;65519;53.230;10.390;2023-06-22T00:33:53;101618.22;;;18.53;74.51
76627;BME280;65519;53.230;10.390;2023-06-22T00:36:20;101619.00;;;18.58;74.26
76627;BME280;65519;53.230;10.390;2023-06-22T00:38:45;101631.84;;;18.68;74.18
76627;BME280;65519;53.230;10.390;2023-06-22T00:41:11;101627.78;;;18.60;73.95
76627;BME280;65519;53.230;10.390;2023-06-22T00:43:36;101627.03;;;18.55;74.08
76627;BME280;65519;53.230;10.390;2023-06-22T00:46:02;101618.53;;;18.51;74.78
76627;BME280;65519;53.230;10.390;2023-06-22T00:48:28;101637.56;;;18.53;74.61
76627;BME280;65519;53.230;10.390;2023-06-22T00:50:54;101634.13;;;18.61;75.10
76627;BME280;65519;53.230;10.390;2023-06-22T00:53:22;101640.13;;;18.68;74.52
76627;BME280;65519;53.230;10.390;2023-06-22T00:55:48;101636.19;;;18.50;74.91
76627;BME280;65519;53.230;10.390;2023-06-22T00:58:17;101640.41;;;18.48;75.10
76627;BME280;65519;53.230;10.390;2023-06-22T01:00:42;101641.06;;;18.40;74.98
76627;BME280;65519;53.230;10.390;2023-06-22T01:03:08;101631.81;;;18.49;74.40
76627;BME280;65519;53.230;10.390;2023-06-22T01:05:35;101638.00;;;18.41;75.02
76627;BME280;65519;53.230;10.390;2023-06-22T01:08:19;101636.44;;;18.35;74.72
76627;BME280;65519;53.230;10.390;2023-06-22T01:10:52;101633.44;;;18.32;74.96
76627;BME280;65519;53.230;10.390;2023-06-22T01:13:54;101638.25;;;18.26;75.07
76627;BME280;65519;53.230;10.390;2023-06-22T01:16:28;101632.88;;;18.35;75.22
76627;BME280;65519;53.230;10.390;2023-06-22T01:18:55;101623.22;;;18.32;74.68
76627;BME280;65519;53.230;10.390;2023-06-22T01:21:24;101624.06;;;18.33;74.58
76627;BME280;65519;53.230;10.390;2023-06-22T01:27:12;101629.88;;;18.31;74.96
76627;BME280;65519;53.230;10.390;2023-06-22T01:29:50;101614.94;;;18.13;75.62
76627;BME280;65519;53.230;10.390;2023-06-22T01:32:17;101623.91;;;18.05;75.86
76627;BME280;65519;53.230;10.390;2023-06-22T01:34:43;101631.75;;;18.17;75.34
76627;BME280;65519;53.230;10.390;2023-06-22T01:37:09;101629.88;;;18.12;75.64
76627;BME280;65519;53.230;10.390;2023-06-22T01:39:35;101631.41;;;18.00;75.46
76627;BME280;65519;53.230;10.390;2023-06-22T01:42:02;101625.50;;;17.87;75.31
76627;BME280;65519;53.230;10.390;2023-06-22T01:44:28;101635.50;;;17.83;76.06
76627;BME280;65519;53.230;10.390;2023-06-22T01:46:54;101630.31;;;17.77;76.35
76627;BME280;65519;53.230;10.390;2023-06-22T01:49:20;101623.97;;;17.76;76.07
76627;BME280;65519;53.230;10.390;2023-06-22T01:51:46;101618.69;;;18.04;75.53
76627;BME280;65519;53.230;10.390;2023-06-22T01:54:11;101625.91;;;18.00;75.62
76627;BME280;65519;53.230;10.390;2023-06-22T01:56:38;101609.22;;;17.86;75.29
76627;BME280;65519;53.230;10.390;2023-06-22T01:59:15;101615.22;;;17.93;75.17
76627;BME280;65519;53.230;10.390;2023-06-22T02:02:07;101619.75;;;17.84;75.68
76627;BME280;65519;53.230;10.390;2023-06-22T02:04:50;101627.72;;;17.85;75.63
76627;BME280;65519;53.230;10.390;2023-06-22T02:07:18;101622.34;;;17.75;75.96
76627;BME280;65519;53.230;10.390;2023-06-22T02:09:48;101620.28;;;17.86;76.18
76627;BME280;65519;53.230;10.390;2023-06-22T02:12:20;101613.91;;;17.67;76.47
76627;BME280;65519;53.230;10.390;2023-06-22T02:14:47;101605.38;;;17.63;76.46
76627;BME280;65519;53.230;10.390;2023-06-22T02:17:13;101606.50;;;17.62;76.57
76627;BME280;65519;53.230;10.390;2023-06-22T02:19:42;101606.19;;;17.64;76.15
76627;BME280;65519;53.230;10.390;2023-06-22T02:22:07;101611.38;;;17.70;76.55
76627;BME280;65519;53.230;10.390;2023-06-22T02:24:33;101603.31;;;17.74;76.09
76627;BME280;65519;53.230;10.390;2023-06-22T02:27:00;101606.56;;;17.81;75.79
76627;BME280;65519;53.230;10.390;2023-06-22T02:29:26;101590.56;;;17.54;75.50
76627;BME280;65519;53.230;10.390;2023-06-22T02:31:53;101603.03;;;17.75;75.42
76627;BME280;65519;53.230;10.390;2023-06-22T02:34:19;101603.28;;;17.79;74.92
76627;BME280;65519;53.230;10.390;2023-06-22T02:36:46;101608.34;;;17.72;75.74
76627;BME280;65519;53.230;10.390;2023-06-22T02:39:23;101599.91;;;17.58;76.03
76627;BME280;65519;53.230;10.390;2023-06-22T02:41:53;101596.34;;;17.58;76.56
76627;BME280;65519;53.230;10.390;2023-06-22T02:44:21;101605.38;;;17.63;76.61
76627;BME280;65519;53.230;10.390;2023-06-22T02:46:47;101605.19;;;17.78;75.93
76627;BME280;65519;53.230;10.390;2023-06-22T02:49:14;101596.34;;;17.58;76.15
76627;BME280;65519;53.230;10.390;2023-06-22T02:51:44;101597.16;;;17.58;75.94
76627;BME280;65519;53.230;10.390;2023-06-22T02:54:11;101600.63;;;17.69;75.56
76627;BME280;65519;53.230;10.390;2023-06-22T02:56:36;101602.91;;;17.62;75.76
76627;BME280;65519;53.230;10.390;2023-06-22T02:59:03;101601.84;;;17.58;76.10
76627;BME280;65519;53.230;10.390;2023-06-22T03:01:35;101594.88;;;17.65;75.29
76627;BME280;65519;53.230;10.390;2023-06-22T03:04:08;101611.13;;;17.67;76.34
76627;BME280;65519;53.230;10.390;2023-06-22T03:06:33;101603.84;;;17.28;76.49
76627;BME280;65519;53.230;10.390;2023-06-22T03:09:01;101609.91;;;17.25;76.77
76627;BME280;65519;53.230;10.390;2023-06-22T03:11:29;101624.28;;;17.22;76.30
76627;BME280;65519;53.230;10.390;2023-06-22T03:13:57;101611.41;;;17.12;76.08
76627;BME280;65519;53.230;10.390;2023-06-22T03:16:23;101634.81;;;17.15;76.08
76627;BME280;65519;53.230;10.390;2023-06-22T03:18:48;101638.16;;;17.12;76.47
76627;BME280;65519;53.230;10.390;2023-06-22T03:21:14;101613.31;;;17.17;76.09
76627;BME280;65519;53.230;10.390;2023-06-22T03:23:41;101623.69;;;17.25;76.01
76627;BME280;65519;53.230;10.390;2023-06-22T03:26:08;101627.63;;;17.19;76.07
76627;BME280;65519;53.230;10.390;2023-06-22T03:28:37;101630.41;;;17.14;76.12
76627;BME280;65519;53.230;10.390;2023-06-22T03:31:03;101626.28;;;17.17;76.40
76627;BME280;65519;53.230;10.390;2023-06-22T03:33:30;101636.50;;;17.11;77.26
76627;BME280;65519;53.230;10.390;2023-06-22T03:35:57;101639.78;;;17.13;76.91
76627;BME280;65519;53.230;10.390;2023-06-22T03:38:23;101638.72;;;17.09;77.38
76627;BME280;65519;53.230;10.390;2023-06-22T03:40:53;101640.06;;;17.17;77.34
76627;BME280;65519;53.230;10.390;2023-06-22T03:43:20;101634.09;;;17.04;78.24
76627;BME280;65519;53.230;10.390;2023-06-22T03:45:45;101649.81;;;17.04;78.11
76627;BME280;65519;53.230;10.390;2023-06-22T03:48:12;101635.75;;;17.05;78.43
76627;BME280;65519;53.230;10.390;2023-06-22T03:50:38;101634.09;;;17.04;78.29
76627;BME280;65519;53.230;10.390;2023-06-22T03:53:03;101640.19;;;17.30;77.88
76627;BME280;65519;53.230;10.390;2023-06-22T03:55:29;101648.94;;;17.37;77.10
76627;BME280;65519;53.230;10.390;2023-06-22T03:57:55;101648.81;;;17.47;77.63
76627;BME280;65519;53.230;10.390;2023-06-22T04:00:25;101640.47;;;17.29;77.70
76627;BME280;65519;53.230;10.390;2023-06-22T04:02:50;101646.22;;;17.32;77.54
76627;BME280;65519;53.230;10.390;2023-06-22T04:05:16;101653.72;;;17.27;77.52
76627;BME280;65519;53.230;10.390;2023-06-22T04:07:44;101661.63;;;17.33;77.45
76627;BME280;65519;53.230;10.390;2023-06-22T04:10:09;101659.88;;;17.42;77.02
76627;BME280;65519;53.230;10.390;2023-06-22T04:12:35;101671.94;;;17.23;77.52
76627;BME280;65519;53.230;10.390;2023-06-22T04:15:01;101659.56;;;17.20;77.59
76627;BME280;65519;53.230;10.390;2023-06-22T04:17:26;101666.69;;;17.26;77.89
76627;BME280;65519;53.230;10.390;2023-06-22T04:19:52;101666.44;;;17.23;78.31
76627;BME280;65519;53.230;10.390;2023-06-22T04:22:17;101663.00;;;17.36;78.19
76627;BME280;65519;53.230;10.390;2023-06-22T04:24:44;101671.28;;;17.36;78.55
76627;BME280;65519;53.230;10.390;2023-06-22T04:27:09;101664.25;;;17.48;77.96
76627;BME280;65519;53.230;10.390;2023-06-22T04:29:35;101659.31;;;17.45;77.56
76627;BME280;65519;53.230;10.390;2023-06-22T04:32:00;101664.69;;;17.32;77.78
76627;BME280;65519;53.230;10.390;2023-06-22T04:34:30;101660.72;;;17.43;77.97
76627;BME280;65519;53.230;10.390;2023-06-22T04:36:56;101671.94;;;17.51;77.21
76627;BME280;65519;53.230;10.390;2023-06-22T04:39:22;101666.44;;;17.51;77.92
76627;BME280;65519;53.230;10.390;2023-06-22T04:41:48;101667.75;;;17.54;77.33
76627;BME280;65519;53.230;10.390;2023-06-22T04:44:19;101661.44;;;17.53;76.85
76627;BME280;65519;53.230;10.390;2023-06-22T04:47:01;101656.31;;;17.71;76.46
76627;BME280;65519;53.230;10.390;2023-06-22T04:49:29;101659.63;;;17.73;77.14
76627;BME280;65519;53.230;10.390;2023-06-22T04:52:00;101661.34;;;17.87;76.29
76627;BME280;65519;53.230;10.390;2023-06-22T04:54:26;101673.69;;;17.95;76.27
76627;BME280;65519;53.230;10.390;2023-06-22T04:56:52;101674.81;;;17.94;76.48
76627;BME280;65519;53.230;10.390;2023-06-22T04:59:24;101667.16;;;17.86;76.66
76627;BME280;65519;53.230;10.390;2023-06-22T05:01:57;101660.31;;;17.83;77.06
76627;BME280;65519;53.230;10.390;2023-06-22T05:04:24;101663.16;;;17.97;77.05
76627;BME280;65519;53.230;10.390;2023-06-22T05:06:50;101663.94;;;18.03;76.86
76627;BME280;65519;53.230;10.390;2023-06-22T05:09:16;101669.56;;;18.16;76.72
76627;BME280;65519;53.230;10.390;2023-06-22T05:11:43;101661.19;;;18.21;76.04
76627;BME280;65519;53.230;10.390;2023-06-22T05:14:09;101663.22;;;18.35;75.93
76627;BME280;65519;53.230;10.390;2023-06-22T05:16:34;101666.44;;;18.42;75.71
76627;BME280;65519;53.230;10.390;2023-06-22T05:18:59;101659.88;;;18.56;75.95
76627;BME280;65519;53.230;10.390;2023-06-22T05:21:26;101654.75;;;18.69;74.19
76627;BME280;65519;53.230;10.390;2023-06-22T05:23:53;101659.97;;;18.70;75.46
76627;BME280;65519;53.230;10.390;2023-06-22T05:26:20;101654.06;;;18.77;74.67
76627;BME280;65519;53.230;10.390;2023-06-22T05:28:46;101656.38;;;18.88;75.17
76627;BME280;65519;53.230;10.390;2023-06-22T05:31:16;101653.84;;;18.92;74.50
76627;BME280;65519;53.230;10.390;2023-06-22T05:33:43;101658.13;;;18.98;73.58
76627;BME280;65519;53.230;10.390;2023-06-22T05:36:09;101659.59;;;19.09;73.03
76627;BME280;65519;53.230;10.390;2023-06-22T05:38:36;101664.06;;;19.24;72.99
76627;BME280;65519;53.230;10.390;2023-06-22T05:41:02;101657.22;;;19.35;72.70
76627;BME280;65519;53.230;10.390;2023-06-22T05:43:28;101659.28;;;19.43;70.66
76627;BME280;65519;53.230;10.390;2023-06-22T05:45:53;101658.69;;;19.46;70.56
76627;BME280;65519;53.230;10.390;2023-06-22T05:48:19;101663.53;;;19.54;69.70
76627;BME280;65519;53.230;10.390;2023-06-22T05:50:44;101655.22;;;19.54;69.46
76627;BME280;65519;53.230;10.390;2023-06-22T05:53:10;101657.06;;;19.59;70.75
76627;BME280;65519;53.230;10.390;2023-06-22T05:55:36;101659.63;;;19.69;68.01
76627;BME280;65519;53.230;10.390;2023-06-22T05:58:01;101658.41;;;19.75;69.08
76627;BME280;65519;53.230;10.390;2023-06-22T06:00:29;101659.13;;;19.81;69.31
76627;BME280;65519;53.230;10.390;2023-06-22T06:02:54;101652.66;;;19.85;70.09
76627;BME280;65519;53.230;10.390;2023-06-22T06:05:20;101656.88;;;19.96;68.63
76627;BME280;65519;53.230;10.390;2023-06-22T06:07:46;101665.25;;;20.05;68.35
76627;BME280;65519;53.230;10.390;2023-06-22T06:10:11;101661.16;;;20.16;67.88
76627;BME280;65519;53.230;10.390;2023-06-22T06:12:37;101664.81;;;20.25;67.27
76627;BME280;65519;53.230;10.390;2023-06-22T06:15:04;101655.59;;;20.30;68.78
76627;BME280;65519;53.230;10.390;2023-06-22T06:17:30;101650.22;;;20.33;68.36
76627;BME280;65519;53.230;10.390;2023-06-22T06:19:56;101655.91;;;20.42;67.10
76627;BME280;65519;53.230;10.390;2023-06-22T06:22:21;101653.44;;;20.40;66.98
76627;BME280;65519;53.230;10.390;2023-06-22T06:24:49;101652.94;;;20.38;66.46
76627;BME280;65519;53.230;10.390;2023-06-22T06:27:14;101650.75;;;20.49;66.70
76627;BME280;65519;53.230;10.390;2023-06-22T06:29:40;101649.84;;;20.40;67.19
76627;BME280;65519;53.230;10.390;2023-06-22T06:32:05;101644.31;;;20.40;68.63
76627;BME280;65519;53.230;10.390;2023-06-22T06:34:31;101650.75;;;20.49;67.95
76627;BME280;65519;53.230;10.390;2023-06-22T06:36:57;101639.72;;;20.58;66.68
76627;BME280;65519;53.230;10.390;2023-06-22T06:39:22;101638.75;;;20.54;67.12
76627;BME280;65519;53.230;10.390;2023-06-22T06:41:48;101633.56;;;20.61;67.20
76627;BME280;65519;53.230;10.390;2023-06-22T06:44:14;101637.97;;;20.62;65.98
76627;BME280;65519;53.230;10.390;2023-06-22T06:46:40;101635.16;;;20.75;66.13
76627;BME280;65519;53.230;10.390;2023-06-22T06:49:07;101628.16;;;20.78;66.57
76627;BME280;65519;53.230;10.390;2023-06-22T06:51:32;101637.22;;;20.92;66.36
76627;BME280;65519;53.230;10.390;2023-06-22T06:53:58;101628.66;;;21.02;65.66
76627;BME280;65519;53.230;10.390;2023-06-22T06:56:23;101626.56;;;21.08;65.49
76627;BME280;65519;53.230;10.390;2023-06-22T06:58:51;101639.16;;;21.14;65.44
76627;BME280;65519;53.230;10.390;2023-06-22T07:01:16;101628.81;;;21.20;65.16
76627;BME280;65519;53.230;10.390;2023-06-22T07:03:42;101628.84;;;21.28;64.53
76627;BME280;65519;53.230;10.390;2023-06-22T07:06:08;101635.69;;;21.31;63.90
76627;BME280;65519;53.230;10.390;2023-06-22T07:08:34;101632.50;;;21.46;64.55
76627;BME280;65519;53.230;10.390;2023-06-22T07:11:01;101637.94;;;21.51;63.44
76627;BME280;65519;53.230;10.390;2023-06-22T07:13:27;101626.00;;;21.51;62.59
76627;BME280;65519;53.230;10.390;2023-06-22T07:15:52;101634.50;;;21.54;63.39
76627;BME280;65519;53.230;10.390;2023-06-22T07:18:18;101636.16;;;21.64;63.68
76627;BME280;65519;53.230;10.390;2023-06-22T07:20:43;101629.84;;;21.72;63.05
76627;BME280;65519;53.230;10.390;2023-06-22T07:23:08;101638.53;;;21.88;63.81
76627;BME280;65519;53.230;10.390;2023-06-22T07:25:34;101634.81;;;21.92;62.51
76627;BME280;65519;53.230;10.390;2023-06-22T07:28:02;101638.91;;;21.95;62.90
76627;BME280;65519;53.230;10.390;2023-06-22T07:30:29;101636.81;;;22.00;62.85
76627;BME280;65519;53.230;10.390;2023-06-22T07:32:55;101637.97;;;22.08;62.85
76627;BME280;65519;53.230;10.390;2023-06-22T07:35:20;101633.09;;;22.22;62.13
76627;BME280;65519;53.230;10.390;2023-06-22T07:37:46;101636.19;;;22.29;60.73
76627;BME280;65519;53.230;10.390;2023-06-22T07:40:12;101629.84;;;22.37;61.62
76627;BME280;65519;53.230;10.390;2023-06-22T07:42:37;101625.59;;;22.48;61.23
76627;BME280;65519;53.230;10.390;2023-06-22T07:45:04;101628.22;;;22.53;61.07
76627;BME280;65519;53.230;10.390;2023-06-22T07:47:29;101624.94;;;22.60;59.99
76627;BME280;65519;53.230;10.390;2023-06-22T07:49:57;101631.16;;;22.66;60.20
76627;BME280;65519;53.230;10.390;2023-06-22T07:52:24;101628.56;;;22.78;59.83
76627;BME280;65519;53.230;10.390;2023-06-22T07:54:51;101626.59;;;22.87;60.21
76627;BME280;65519;53.230;10.390;2023-06-22T07:57:16;101615.75;;;22.94;60.09
76627;BME280;65519;53.230;10.390;2023-06-22T07:59:42;101611.69;;;23.00;58.44
76627;BME280;65519;53.230;10.390;2023-06-22T08:02:07;101613.09;;;23.15;55.84
76627;BME280;65519;53.230;10.390;2023-06-22T08:04:34;101618.13;;;23.30;55.20
76627;BME280;65519;53.230;10.390;2023-06-22T08:07:01;101622.38;;;23.36;53.95
76627;BME280;65519;53.230;10.390;2023-06-22T08:09:31;101626.44;;;23.39;53.52
76627;BME280;65519;53.230;10.390;2023-06-22T08:11:57;101619.56;;;23.45;53.07
76627;BME280;65519;53.230;10.390;2023-06-22T08:14:26;101629.38;;;23.51;53.46
76627;BME280;65519;53.230;10.390;2023-06-22T08:16:52;101619.22;;;23.55;54.00
76627;BME280;65519;53.230;10.390;2023-06-22T08:19:17;101622.78;;;23.64;54.03
76627;BME280;65519;53.230;10.390;2023-06-22T08:21:43;101623.06;;;23.71;53.75
76627;BME280;65519;53.230;10.390;2023-06-22T08:24:09;101611.94;;;23.71;53.15
76627;BME280;65519;53.230;10.390;2023-06-22T08:26:34;101600.47;;;23.73;54.03
76627;BME280;65519;53.230;10.390;2023-06-22T08:29:03;101614.00;;;23.83;54.52
76627;BME280;65519;53.230;10.390;2023-06-22T08:31:28;101608.38;;;23.91;54.75
76627;BME280;65519;53.230;10.390;2023-06-22T08:33:54;101616.88;;;23.95;53.28
76627;BME280;65519;53.230;10.390;2023-06-22T08:36:19;101607.31;;;24.05;52.31
76627;BME280;65519;53.230;10.390;2023-06-22T08:38:45;101598.94;;;24.05;52.11
76627;BME280;65519;53.230;10.390;2023-06-22T08:41:15;101603.84;;;24.08;53.22
76627;BME280;65519;53.230;10.390;2023-06-22T08:43:40;101598.28;;;24.08;53.72
76627;BME280;65519;53.230;10.390;2023-06-22T08:46:07;101595.34;;;24.33;53.50
76627;BME280;65519;53.230;10.390;2023-06-22T08:48:32;101568.53;;;24.20;51.97
76627;BME280;65519;53.230;10.390;2023-06-22T08:50:58;101598.06;;;24.42;53.64
76627;BME280;65519;53.230;10.390;2023-06-22T08:53:23;101600.91;;;24.54;53.54
76627;BME280;65519;53.230;10.390;2023-06-22T08:55:49;101606.88;;;24.65;50.57
76627;BME280;65519;53.230;10.390;2023-06-22T08:58:16;101594.19;;;24.67;51.04
76627;BME280;65519;53.230;10.390;2023-06-22T09:00:41;101598.13;;;24.66;52.13
76627;BME280;65519;53.230;10.390;2023-06-22T09:03:07;101602.13;;;24.78;51.53
76627;BME280;65519;53.230;10.390;2023-06-22T09:05:33;101594.16;;;24.88;50.95
76627;BME280;65519;53.230;10.390;2023-06-22T09:07:58;101595.94;;;24.93;52.33
76627;BME280;65519;53.230;10.390;2023-06-22T09:10:25;101595.28;;;24.96;52.83
76627;BME280;65519;53.230;10.390;2023-06-22T09:12:50;101588.97;;;24.99;50.97
76627;BME280;65519;53.230;10.390;2023-06-22T09:15:16;101587.47;;;25.01;51.15
76627;BME280;65519;53.230;10.390;2023-06-22T09:17:42;101580.75;;;25.02;50.14
76627;BME280;65519;53.230;10.390;2023-06-22T09:20:08;101575.06;;;25.11;51.19
76627;BME280;65519;53.230;10.390;2023-06-22T09:22:36;101575.19;;;25.15;50.40
76627;BME280;65519;53.230;10.390;2023-06-22T09:25:01;101579.63;;;25.28;50.04
76627;BME280;65519;53.230;10.390;2023-06-22T09:27:28;101579.75;;;25.43;48.82
76627;BME280;65519;53.230;10.390;2023-06-22T09:29:54;101577.09;;;25.47;50.92
76627;BME280;65519;53.230;10.390;2023-06-22T09:32:19;101576.63;;;25.57;48.61
76627;BME280;65519;53.230;10.390;2023-06-22T09:34:45;101576.78;;;25.61;48.57
76627;BME280;65519;53.230;10.390;2023-06-22T09:37:10;101568.84;;;25.51;48.69
76627;BME280;65519;53.230;10.390;2023-06-22T09:39:35;101560.00;;;25.49;47.41
76627;BME280;65519;53.230;10.390;2023-06-22T09:42:02;101561.66;;;25.62;47.89
76627;BME280;65519;53.230;10.390;2023-06-22T09:44:27;101563.72;;;25.77;48.88
76627;BME280;65519;53.230;10.390;2023-06-22T09:46:53;101542.44;;;25.72;48.78
76627;BME280;65519;53.230;10.390;2023-06-22T09:49:19;101550.91;;;25.76;48.89
76627;BME280;65519;53.230;10.390;2023-06-22T09:51:44;101537.41;;;25.78;48.95
76627;BME280;65519;53.230;10.390;2023-06-22T09:54:10;101545.56;;;25.83;49.27
76627;BME280;65519;53.230;10.390;2023-06-22T09:56:35;101531.31;;;26.00;47.04
76627;BME280;65519;53.230;10.390;2023-06-22T09:59:02;101534.13;;;26.00;47.35
76627;BME280;65519;53.230;10.390;2023-06-22T10:01:28;101535.00;;;26.16;47.86
76627;BME280;65519;53.230;10.390;2023-06-22T10:03:55;101543.13;;;26.34;47.06
76627;BME280;65519;53.230;10.390;2023-06-22T10:06:22;101537.78;;;26.29;45.71
76627;BME280;65519;53.230;10.390;2023-06-22T10:08:47;101540.78;;;26.36;46.35
76627;BME280;65519;53.230;10.390;2023-06-22T10:11:16;101532.19;;;26.57;45.78
76627;BME280;65519;53.230;10.390;2023-06-22T10:13:41;101528.06;;;26.66;45.53
76627;BME280;65519;53.230;10.390;2023-06-22T10:16:07;101525.91;;;26.75;46.23
76627;BME280;65519;53.230;10.390;2023-06-22T10:18:32;101529.63;;;26.79;44.46
76627;BME280;65519;53.230;10.390;2023-06-22T10:20:58;101526.91;;;26.83;45.02
76627;BME280;65519;53.230;10.390;2023-06-22T10:23:23;101523.00;;;26.72;44.74
76627;BME280;65519;53.230;10.390;2023-06-22T10:25:49;101523.75;;;26.69;46.68
76627;BME280;65519;53.230;10.390;2023-06-22T10:28:15;101519.56;;;26.63;46.79
76627;BME280;65519;53.230;10.390;2023-06-22T10:30:41;101518.44;;;26.79;46.77
76627;BME280;65519;53.230;10.390;2023-06-22T10:33:11;101510.41;;;26.94;45.29
76627;BME280;65519;53.230;10.390;2023-06-22T10:35:37;101510.97;;;26.99;45.29
76627;BME280;65519;53.230;10.390;2023-06-22T10:38:06;101524.34;;;27.06;45.40
76627;BME280;65519;53.230;10.390;2023-06-22T10:40:31;101513.88;;;27.03;45.49
76627;BME280;65519;53.230;10.390;2023-06-22T10:42:57;101504.94;;;26.97;45.66
76627;BME280;65519;53.230;10.390;2023-06-22T10:45:23;101505.03;;;27.01;44.35
76627;BME280;65519;53.230;10.390;2023-06-22T10:47:48;101503.66;;;26.95;46.35
76627;BME280;65519;53.230;10.390;2023-06-22T10:50:15;101502.28;;;26.88;45.75
76627;BME280;65519;53.230;10.390;2023-06-22T10:52:41;101500.75;;;26.91;45.71
76627;BME280;65519;53.230;10.390;2023-06-22T10:55:09;101498.78;;;26.92;44.55
76627;BME280;65519;53.230;10.390;2023-06-22T10:57:35;101497.16;;;26.90;45.39
76627;BME280;65519;53.230;10.390;2023-06-22T11:00:02;101499.06;;;27.02;46.50
76627;BME280;65519;53.230;10.390;2023-06-22T11:02:31;101504.66;;;27.02;45.20
76627;BME280;65519;53.230;10.390;2023-06-22T11:04:56;101501.59;;;27.07;45.92
76627;BME280;65519;53.230;10.390;2023-06-22T11:07:24;101499.34;;;27.13;44.11
76627;BME280;65519;53.230;10.390;2023-06-22T11:09:51;101497.16;;;27.06;44.75
76627;BME280;65519;53.230;10.390;2023-06-22T11:12:17;101491.22;;;27.08;46.09
76627;BME280;65519;53.230;10.390;2023-06-22T11:14:42;101495.28;;;27.10;44.85
76627;BME280;65519;53.230;10.390;2023-06-22T11:17:08;101482.97;;;27.15;45.37
76627;BME280;65519;53.230;10.390;2023-06-22T11:19:33;101479.19;;;27.23;43.93
76627;BME280;65519;53.230;10.390;2023-06-22T11:21:59;101472.59;;;27.31;44.60
76627;BME280;65519;53.230;10.390;2023-06-22T11:24:24;101464.06;;;27.43;45.51
76627;BME280;65519;53.230;10.390;2023-06-22T11:26:50;101473.44;;;27.51;45.38
76627;BME280;65519;53.230;10.390;2023-06-22T11:29:15;101458.44;;;27.59;44.26
76627;BME280;65519;53.230;10.390;2023-06-22T11:31:41;101464.84;;;27.59;45.18
76627;BME280;65519;53.230;10.390;2023-06-22T11:34:08;101457.31;;;27.79;46.78
76627;BME280;65519;53.230;10.390;2023-06-22T11:36:33;101466.81;;;27.75;44.66
76627;BME280;65519;53.230;10.390;2023-06-22T11:39:01;101468.94;;;27.62;43.65
76627;BME280;65519;53.230;10.390;2023-06-22T11:41:27;101465.84;;;27.51;43.01
76627;BME280;65519;53.230;10.390;2023-06-22T11:43:52;101466.88;;;27.43;44.06
76627;BME280;65519;53.230;10.390;2023-06-22T11:46:18;101464.63;;;27.33;42.92
76627;BME280;65519;53.230;10.390;2023-06-22T11:48:43;101457.41;;;27.16;45.27
76627;BME280;65519;53.230;10.390;2023-06-22T11:51:09;101457.72;;;27.11;45.02
76627;BME280;65519;53.230;10.390;2023-06-22T11:53:35;101455.53;;;27.05;45.84
76627;BME280;65519;53.230;10.390;2023-06-22T11:56:00;101447.34;;;26.96;46.00
76627;BME280;65519;53.230;10.390;2023-06-22T11:58:26;101451.41;;;26.99;47.37
76627;BME280;65519;53.230;10.390;2023-06-22T12:00:52;101440.31;;;27.02;48.20
76627;BME280;65519;53.230;10.390;2023-06-22T12:03:18;101445.25;;;27.09;44.97
76627;BME280;65519;53.230;10.390;2023-06-22T12:05:44;101443.16;;;27.06;45.81
76627;BME280;65519;53.230;10.390;2023-06-22T12:08:09;101449.13;;;26.88;45.01
76627;BME280;65519;53.230;10.390;2023-06-22T12:10:35;101424.88;;;26.93;45.38
76627;BME280;65519;53.230;10.390;2023-06-22T12:13:00;101431.47;;;27.00;45.86
76627;BME280;65519;53.230;10.390;2023-06-22T12:15:26;101428.75;;;27.04;44.96
76627;BME280;65519;53.230;10.390;2023-06-22T12:17:52;101435.59;;;27.06;46.58
76627;BME280;65519;53.230;10.390;2023-06-22T12:20:18;101429.63;;;27.08;47.03
76627;BME280;65519;53.230;10.390;2023-06-22T12:22:44;101417.09;;;27.02;47.99
76627;BME280;65519;53.230;10.390;2023-06-22T12:25:10;101429.19;;;26.90;47.47
76627;BME280;65519;53.230;10.390;2023-06-22T12:27:36;101424.28;;;26.87;47.54
76627;BME280;65519;53.230;10.390;2023-06-22T12:30:02;101423.03;;;26.84;47.75
76627;BME280;65519;53.230;10.390;2023-06-22T12:32:28;101418.44;;;26.76;47.30
76627;BME280;65519;53.230;10.390;2023-06-22T12:34:53;101415.38;;;26.81;45.91
76627;BME280;65519;53.230;10.390;2023-06-22T12:37:19;101421.34;;;26.80;47.74
76627;BME280;65519;53.230;10.390;2023-06-22T12:39:44;101405.63;;;26.75;47.38
76627;BME280;65519;53.230;10.390;2023-06-22T12:42:10;101426.13;;;26.79;47.09